• Join FlightAware (Why Join?)
  • Login
  • US Flag 
11:27AM EDT


 

Airport Tracker/Info


-or-


 

Live Flight TrackerFlight Track Log ✈ N99PN ✈ 15-May-2014 ✈ MYAM / MHH - KFPR

Flight Track Log - Related Links

Times and Time Zones

All times are in EDT time to prevent confusion due to time zone crossing. See the N99PN flight status page for this flight to view local times or setup timezone preferences in your user account.

Time Position Orientation Groundspeed Altitude Reporting Facility
EDT Latitude Longitude Course Direction KTS MPH feet Rate Location/Type
03:52PM 26.6122 -77.7661 272° West 163 188 8,100  Level Miami Center
03:53PM 26.6142 -77.8203 272° West 168 193 8,100  Level Miami Center
03:54PM 26.6172 -77.8714 274° West 168 193 8,100  Level Miami Center
03:55PM 26.6211 -77.9275 274° West 168 193 8,200  Climbing Miami Center
03:56PM 26.6197 -77.9781 268° West 168 193 8,200 -60 Level Miami Center
03:57PM 26.5266 -77.7545 272° West  Level FlightAware Approximate
03:57PM 26.6156 -78.0322 265° West 167 192 8,100  Level Miami Center
03:58PM 26.6125 -78.0864 266° West 166 191 8,200  Climbing Miami Center
03:59PM 26.6089 -78.1436 266° West 170 196 8,100  Descending Miami Center
04:00PM 26.6039 -78.2006 264° West 177 204 8,200  Climbing Miami Center
04:01PM 26.6006 -78.2572 266° West 179 206 8,200 -60 Level Miami Center
04:02PM 26.5972 -78.3186 267° West 180 207 8,100 -60 Descending Miami Center
04:03PM 26.5944 -78.3756 267° West 180 207 8,100  Level Miami Center
04:04PM 26.5931 -78.4361 269° West 186 214 8,100  Level Miami Center
04:05PM 26.5911 -78.4989 268° West 186 214 8,200  Climbing Miami Center
04:06PM 26.5906 -78.5539 269° West 186 214 8,100 -60 Descending Miami Center
04:07PM 26.5881 -78.6125 267° West 185 213 8,100  Level Miami Center
04:08PM 26.5875 -78.6728 269° West 184 212 8,100  Level Miami Center
04:09PM 26.5889 -78.7197 272° West 178 205 8,100  Level Miami Center
04:10PM 26.6178 -78.7697 303° West 185 213 8,100  Level Miami Center
04:11PM 26.6486 -78.8281 301° West 185 213 8,100  Level Miami Center
04:12PM 26.6775 -78.8775 303° West 185 213 8,100 -60 Level Miami Center
04:14PM 26.7033 -78.9264 301° West 185 213 8,000  Descending Miami Center
04:15PM 26.7308 -78.9736 303° West 185 213 8,100  Climbing Miami Center
04:16PM 26.7583 -79.0217 303° West 184 212 8,000  Descending Miami Center
04:17PM 26.7850 -79.0692 302° West 181 208 8,100  Climbing Miami Center
04:18PM 26.8197 -79.1247 305° West 183 211 8,000  Descending Miami Center
04:19PM 26.8472 -79.1672 306° West 171 197 8,100 -60 Climbing Miami Center
04:20PM 26.8753 -79.2086 307° West 166 191 7,900 -60 Descending Miami Center
04:21PM 26.9047 -79.2536 306° West 176 203 8,000 60 Climbing Miami Center
04:22PM 26.9375 -79.3036 306° West 181 208 8,100  Climbing Miami Center
04:23PM 26.9700 -79.3492 309° West 179 206 8,000 -60 Descending Miami Center
04:24PM 27.0014 -79.3956 307° West 180 207 8,000  Level Miami Center
04:25PM 27.0342 -79.4422 308° West 181 208 8,000 -60 Level Miami Center
04:26PM 27.0650 -79.4839 310° West 179 206 7,900 -360 Descending Miami Center
04:27PM 27.1022 -79.5317 311° West 194 223 7,300 -540 Descending Miami Center
04:28PM 27.1358 -79.5817 307° West 196 226 6,900 -600 Descending Miami Center
04:29PM 27.1722 -79.6333 308° West 197 227 6,100 -780 Descending Miami Center
04:30PM 27.2031 -79.6889 302° West 200 230 5,300 -660 Descending Miami Center
04:31PM 27.2336 -79.7428 303° West 199 229 4,800 -600 Descending Miami Center
04:32PM 27.2625 -79.7939 302° West 202 232 4,100 -360 Descending Miami Center
04:33PM 27.2900 -79.8414 303° West 189 217 4,100 -60 Level Miami Center
04:34PM 27.3208 -79.8947 303° West 184 212 4,000 -60 Descending Miami Center
04:35PM 27.3500 -79.9422 305° West 180 207 4,000  Level Miami Center
04:36PM 27.3761 -79.9928 300° West 180 207 4,000  Level Miami Center
04:37PM 27.3933 -80.0397 292° West 173 199 4,000 -420 Level Miami Center
04:38PM 27.4131 -80.0947 292° West 181 208 3,200 -480 Descending Miami Center
04:39PM 27.4253 -80.1550 283° West 186 214 3,100 -120 Descending Miami Center
04:40PM 27.4394 -80.2111 286° West 183 211 3,000 -60 Descending Miami Center
04:41PM 27.4597 -80.2650 293° West 180 207 3,000  Level Miami Center
04:42PM 27.4797 -80.3192 293° West 180 207 3,000  Level Miami Center
04:43PM 27.4983 -80.3675 293° West 175 201 3,000  Level Miami Center
04:44PM 27.5172 -80.4183 293° West 170 196 3,000  Level Miami Center
04:46PM 27.5347 -80.4656 293° West 158 182 3,000  Level Miami Center
04:47PM 27.5531 -80.5131 294° West 159 183 3,000  Level Miami Center
04:48PM 27.5647 -80.5625 285° West 158 182 3,000  Level Miami Center
04:49PM 27.5753 -80.6075 285° West 157 181 3,000 -60 Level Miami Center
04:50PM 27.6056 -80.6425 314° West 176 203 2,900  Descending Miami Center
04:51PM 27.6233 -80.6022 64° Northeast 147 169 3,100  Climbing Miami Center
04:52PM 27.6306 -80.5572 80° East 146 168 3,000 -60 Descending Miami Center
04:53PM 27.6331 -80.5189 86° East 128 147 3,000 -540 Level Miami Center
04:54PM 27.6086 -80.4983 143° Southeast 115 132 2,000 -540 Descending Miami Center
04:55PM 27.5878 -80.4750 135° Southeast 103 119 1,900 -60 Descending Miami Center
04:56PM 27.5678 -80.4506 133° Southeast 102 117 1,900 -300 Level Miami Center
04:57PM 27.5464 -80.4275 136° Southeast 102 117 1,300 -540 Descending Miami Center
04:58PM 27.5256 -80.4039 135° Southeast 102 117 800 -480 Descending Miami Center
04:59PM 27.5075 -80.3844 136° Southeast 97 112 400 -300 Descending Miami Center
05:00PM 27.4906 -80.3653 135° Southeast 97 112 200 -240 Descending Miami Center